首页
METAR-TAF:

METAR-TAF

机场 :

維多利亞港口, 不列颠哥伦比亚, 加拿大

纬度: 48-25N, 经度: 123-20W, 海拔: 5米

当前天气观测

该预报发布于59分钟前的13:00 UTC
风速3节,风向北转西北
温度 10°C
湿度 93%
气压 1015 hPa
能見度: 24.1公里
少量云层高于4500英尺

METAR: CYWH 221300Z 33003KT 15SM FEW045 10/09 A2997 RMK SC2 SLP150

时间: 06:59 (13:59 UTC)

预报

该预报发布于14小时和20分钟前的23:39 UTC
预报有效从22日的 00点(UTC)到 22日的 04点(UTC)
风速8节,风向西南
能見度: 10公里
少量云层高于3000英尺
散云层高于10000英尺

TAF: CYWH 212339Z 2200/2204 22008KT P6SM FEW030 SCT100 RMK NXT FCST WILL BE ISSUED AT 221415Z

超过4000个机场的气象观测和天气预报(METAR&TAF报告)。

可查询的气象台以黄色和红色小点在地图上表示。

将鼠标移到小点上方,可查看气象台名称。

然后点击查看天气观测和预报。

如需切换地图:点击带黑十字的绿色按钮放大地图;点击带横线的绿色按钮缩小地图;或者点击绿色箭头查看邻近地区的地图。


METAR-TAF: